KBAF/BAF METAR and TAF weather

Enter ICAO airport designator
Station Type Date Time Source
KBAF METAR 2020/09/22 16:53 UTC NOAA

KBAF 221653Z 04007KT 10SM CLR 18/03 A3003 RMK AO2 SLP170 T01830033


Station Type Date Time Source
KBAF Decoded METAR 2020/09/22 16:53 UTC NOAA

WESTFIELD BARNES MUNICIPAL, MA, United States (KBAF) 42-10N 072-43W 83M
Sep 22, 2020 - 12:53 PM EDT / 2020.09.22 1653 UTC
Wind: from the NE (040 degrees) at 8 MPH (7 KT):0
Visibility: 10 mile(s):0
Sky conditions: clear
Temperature: 64.9 F (18.3 C)
Dew Point: 37.9 F (3.3 C)
Relative Humidity: 36%
Pressure (altimeter): 30.03 in. Hg (1016 hPa)
ob: KBAF 221653Z 04007KT 10SM CLR 18/03 A3003 RMK AO2 SLP170 T01830033
cycle: 17

Station Type Date Time Source
KBAF TAF 2020/09/22 12:28 UTC NOAA

TAF KBAF 221125Z 2212/2312 35005KT P6SM SKC
FM221400 36010KT P6SM SKC
FM221800 35013G23KT P6SM FEW250
FM222300 33011G20KT P6SM SKC
FM230300 34010KT P6SM SKC
FM231100 30005KT P6SM SKC

Example: see airport list